createdAt,value
2022-10-05T03:29:09.215Z,95.90
2022-10-05T03:30:09.148Z,96.21
2022-10-05T03:31:09.265Z,96.21
2022-10-05T03:32:09.126Z,96.92
2022-10-05T03:33:09.120Z,96.72
2022-10-05T03:34:09.137Z,96.72
2022-10-05T03:35:09.097Z,96.51
2022-10-05T03:36:09.087Z,96.83
2022-10-05T03:37:09.071Z,96.62
2022-10-05T03:38:09.108Z,96.62
2022-10-05T03:39:09.142Z,96.92
2022-10-05T03:40:14.326Z,96.83
2022-10-05T03:41:09.058Z,96.83
2022-10-05T03:42:09.017Z,96.83
2022-10-05T03:43:09.000Z,96.92
2022-10-05T03:44:09.000Z,96.83
2022-10-05T03:45:09.010Z,97.44
2022-10-05T03:46:09.039Z,97.38
2022-10-05T03:47:09.266Z,97.54
2022-10-05T03:48:09.242Z,97.54
2022-10-05T03:49:09.433Z,97.64
2022-10-05T03:50:09.065Z,97.64
2022-10-05T03:51:14.208Z,97.85
2022-10-05T03:52:09.029Z,97.54
2022-10-05T03:53:08.903Z,97.54
2022-10-05T03:54:08.914Z,97.24
2022-10-05T03:55:08.882Z,97.64
2022-10-05T03:56:08.861Z,97.54
2022-10-05T03:57:08.913Z,97.64
2022-10-05T03:58:08.829Z,97.95
2022-10-05T03:59:08.838Z,97.85
2022-10-05T04:00:08.810Z,97.74
2022-10-05T04:01:08.884Z,97.95
2022-10-05T04:02:13.839Z,97.85
2022-10-05T04:03:08.814Z,97.74
2022-10-05T04:04:08.778Z,97.95
2022-10-05T04:05:08.752Z,98.05
2022-10-05T04:06:08.804Z,97.54
2022-10-05T04:07:08.736Z,97.44
2022-10-05T04:08:08.744Z,97.44
2022-10-05T04:09:08.723Z,97.44
2022-10-05T04:10:08.693Z,97.54
2022-10-05T04:11:08.688Z,97.54
2022-10-05T04:12:08.670Z,97.44
2022-10-05T04:13:13.685Z,97.33
2022-10-05T04:14:08.671Z,97.54
2022-10-05T04:15:08.639Z,97.64
2022-10-05T04:16:08.739Z,97.44
2022-10-05T04:17:08.634Z,97.85
2022-10-05T04:18:08.604Z,98.05
2022-10-05T04:19:08.625Z,97.74
2022-10-05T04:20:08.593Z,97.74
2022-10-05T04:21:08.571Z,97.74
2022-10-05T04:22:08.559Z,97.54
2022-10-05T04:23:08.560Z,97.74
2022-10-05T04:24:13.561Z,97.44
2022-10-05T04:25:08.580Z,98.46
2022-10-05T04:26:08.510Z,97.54
2022-10-05T04:27:08.501Z,97.44
2022-10-05T04:28:08.533Z,97.74
2022-10-05T04:29:08.515Z,97.44
2022-10-05T04:30:08.478Z,97.54
2022-10-05T04:31:08.490Z,97.85
2022-10-05T04:32:08.442Z,98.46
2022-10-05T04:33:08.452Z,97.74
2022-10-05T04:34:08.424Z,97.44
2022-10-05T04:35:13.453Z,98.25
2022-10-05T04:36:08.435Z,98.46
2022-10-05T04:37:08.393Z,98.46
2022-10-05T04:38:08.383Z,97.54
2022-10-05T04:39:08.551Z,98.30
2022-10-05T04:40:08.370Z,97.95
2022-10-05T04:41:08.474Z,98.15
2022-10-05T04:42:08.348Z,98.05
2022-10-05T04:43:08.319Z,97.85
2022-10-05T04:44:08.334Z,97.79
2022-10-05T04:45:08.314Z,97.89
2022-10-05T04:46:13.414Z,97.69
2022-10-05T04:47:08.347Z,97.99
2022-10-05T04:48:08.377Z,97.74
2022-10-05T04:49:08.305Z,97.85
2022-10-05T04:50:08.265Z,97.85
2022-10-05T04:51:08.229Z,97.89
2022-10-05T04:52:08.222Z,98.20
2022-10-05T04:53:08.211Z,97.95
2022-10-05T04:54:08.224Z,97.79
2022-10-05T04:55:08.203Z,97.95
2022-10-05T04:56:08.172Z,98.40
2022-10-05T04:57:13.194Z,97.79
2022-10-05T04:58:08.148Z,98.40
2022-10-05T04:59:08.137Z,98.05
2022-10-05T05:00:08.126Z,98.20
2022-10-05T05:01:08.180Z,97.89
2022-10-05T05:02:08.115Z,97.89
2022-10-05T05:03:08.105Z,97.58
2022-10-05T05:04:08.151Z,97.89
2022-10-05T05:05:08.095Z,98.61
2022-10-05T05:06:19.026Z,98.20
2022-10-05T05:07:09.052Z,97.79
2022-10-05T05:08:13.058Z,98.10
2022-10-05T05:09:08.046Z,97.89
2022-10-05T05:10:08.014Z,97.79
2022-10-05T05:11:10.382Z,98.10
2022-10-05T05:12:09.019Z,98.50
2022-10-05T05:13:07.996Z,98.30
2022-10-05T05:14:07.988Z,98.55
2022-10-05T05:15:08.035Z,98.55
2022-10-05T05:16:08.015Z,98.45
2022-10-05T05:17:12.305Z,98.71
2022-10-05T05:18:08.929Z,98.40
2022-10-05T05:19:12.950Z,98.35
2022-10-05T05:20:07.966Z,98.86
2022-10-05T05:21:07.955Z,98.96
2022-10-05T05:22:07.990Z,98.86
2022-10-05T05:23:07.947Z,98.86
2022-10-05T05:24:07.868Z,99.02
2022-10-05T05:25:07.849Z,98.96
2022-10-05T05:26:07.855Z,99.16
2022-10-05T05:27:07.833Z,99.06
2022-10-05T05:28:08.052Z,99.06
2022-10-05T05:29:07.818Z,99.16
2022-10-05T05:30:12.809Z,99.27
2022-10-05T05:31:07.827Z,99.06
2022-10-05T05:32:07.765Z,99.27
2022-10-05T05:33:07.771Z,99.27
2022-10-05T05:34:07.777Z,99.27
2022-10-05T05:35:07.747Z,99.16
2022-10-05T05:36:07.728Z,99.06
2022-10-05T05:37:07.814Z,99.06
2022-10-05T05:38:07.721Z,98.35
2022-10-05T05:39:07.690Z,98.86
2022-10-05T05:40:07.681Z,98.55
2022-10-05T05:41:12.776Z,98.24
2022-10-05T05:42:07.649Z,98.35
2022-10-05T05:43:07.639Z,98.71
2022-10-05T05:44:07.640Z,98.40
2022-10-05T05:45:07.625Z,98.30
2022-10-05T05:46:07.605Z,98.50
2022-10-05T05:47:07.935Z,98.61
2022-10-05T05:48:07.592Z,97.58
2022-10-05T05:49:07.576Z,97.89
2022-10-05T05:50:07.894Z,97.79
2022-10-05T05:51:07.557Z,97.89
2022-10-05T05:52:12.698Z,97.89
2022-10-05T05:53:07.525Z,97.58
2022-10-05T05:54:07.517Z,97.69
2022-10-05T05:55:07.505Z,98.10
2022-10-05T05:56:07.506Z,97.94
2022-10-05T05:57:07.487Z,97.94
2022-10-05T05:58:07.471Z,98.35
2022-10-05T05:59:07.458Z,98.35
2022-10-05T06:00:07.445Z,98.14
2022-10-05T06:01:13.186Z,97.83
2022-10-05T06:02:08.496Z,97.99
2022-10-05T06:03:12.545Z,98.45
2022-10-05T06:04:07.399Z,98.96
2022-10-05T06:05:07.390Z,98.45
2022-10-05T06:06:07.394Z,98.96
2022-10-05T06:07:07.371Z,99.27
2022-10-05T06:08:07.399Z,98.96
2022-10-05T06:09:07.357Z,98.81
2022-10-05T06:10:07.332Z,98.96
2022-10-05T06:11:07.388Z,98.96
2022-10-05T06:12:07.311Z,98.96
2022-10-05T06:13:07.335Z,99.16
2022-10-05T06:14:12.317Z,98.75
2022-10-05T06:15:07.277Z,99.11
2022-10-05T06:16:07.378Z,99.27
2022-10-05T06:17:07.276Z,98.96
2022-10-05T06:18:07.245Z,99.27
2022-10-05T06:19:07.234Z,98.96
2022-10-05T06:20:07.218Z,98.75
2022-10-05T06:21:07.220Z,99.06
2022-10-05T06:22:07.202Z,99.37
2022-10-05T06:23:07.193Z,98.96
2022-10-05T06:24:07.192Z,99.11
2022-10-05T06:25:12.211Z,99.52
2022-10-05T06:26:10.695Z,99.93
2022-10-05T06:27:07.159Z,99.62
2022-10-05T06:28:07.218Z,99.82
2022-10-05T06:29:07.120Z,99.99
2022-10-05T06:30:07.108Z,99.99
2022-10-05T06:31:07.157Z,99.99
2022-10-05T06:32:07.132Z,99.99
2022-10-05T06:33:07.072Z,99.99
2022-10-05T06:34:07.072Z,99.99
2022-10-05T06:35:07.067Z,99.99
2022-10-05T06:36:12.067Z,99.99
2022-10-05T06:37:07.045Z,99.99
2022-10-05T06:38:07.014Z,99.99
2022-10-05T06:39:07.007Z,99.99
2022-10-05T06:40:07.013Z,99.99
2022-10-05T06:41:06.995Z,99.99
2022-10-05T06:42:06.980Z,99.99
2022-10-05T06:43:06.959Z,99.99
2022-10-05T06:44:06.963Z,99.99
2022-10-05T06:45:06.938Z,99.99
2022-10-05T06:46:06.995Z,99.99
2022-10-05T06:47:11.957Z,99.99
2022-10-05T06:48:06.908Z,99.99
2022-10-05T06:49:06.898Z,99.99
2022-10-05T06:50:06.917Z,99.99
2022-10-05T06:51:06.873Z,99.99
2022-10-05T06:52:06.878Z,99.99
2022-10-05T06:53:06.847Z,99.99
2022-10-05T06:54:06.836Z,99.99
2022-10-05T06:55:09.565Z,99.99
2022-10-05T06:56:07.850Z,99.99
2022-10-05T06:57:06.814Z,99.99
2022-10-05T06:58:11.812Z,99.99
2022-10-05T06:59:06.780Z,99.99
2022-10-05T07:00:06.779Z,99.99
2022-10-05T07:01:06.850Z,99.99
2022-10-05T07:02:06.834Z,99.99
2022-10-05T07:03:06.732Z,99.99
2022-10-05T07:04:06.721Z,99.99
2022-10-05T07:05:06.710Z,99.99
2022-10-05T07:06:06.714Z,99.99
2022-10-05T07:07:06.688Z,99.99
2022-10-05T07:08:06.689Z,99.99
2022-10-05T07:09:11.690Z,99.99
2022-10-05T07:10:06.666Z,99.99
2022-10-05T07:11:06.685Z,99.99
2022-10-05T07:12:07.312Z,99.99
2022-10-05T07:13:06.648Z,99.99
2022-10-05T07:14:06.773Z,99.99
2022-10-05T07:15:06.597Z,99.99
2022-10-05T07:16:06.648Z,99.99
2022-10-05T07:17:06.579Z,99.98
2022-10-05T07:18:06.585Z,99.73
2022-10-05T07:19:06.556Z,99.99
2022-10-05T07:20:11.582Z,99.93
2022-10-05T07:21:06.531Z,99.93
2022-10-05T07:23:06.518Z,99.63
2022-10-05T07:24:06.517Z,99.73
2022-10-05T07:25:06.493Z,99.89
2022-10-05T07:26:06.477Z,99.79
2022-10-05T07:27:06.461Z,99.38
2022-10-05T07:28:06.567Z,99.38
2022-10-05T07:29:06.455Z,99.58
2022-10-05T07:30:06.427Z,99.68
2022-10-05T07:31:11.546Z,99.18
2022-10-05T07:32:06.408Z,98.66
2022-10-05T07:33:06.410Z,98.77
2022-10-05T07:34:06.381Z,98.77
2022-10-05T07:35:06.368Z,98.93
2022-10-05T07:36:06.363Z,98.93
2022-10-05T07:37:06.350Z,98.31
2022-10-05T07:38:06.334Z,98.21
2022-10-05T07:39:06.334Z,97.60
2022-10-05T07:40:06.312Z,97.70
2022-10-05T07:41:06.325Z,98.06
2022-10-05T07:42:11.312Z,97.96
2022-10-05T07:43:06.282Z,98.36
2022-10-05T07:44:11.658Z,97.55
2022-10-05T07:45:07.255Z,97.75
2022-10-05T07:46:06.309Z,96.69
2022-10-05T07:47:06.233Z,96.79
2022-10-05T07:48:06.226Z,96.69
2022-10-05T07:49:06.221Z,96.14
2022-10-05T07:50:06.209Z,95.73
2022-10-05T07:51:06.191Z,95.62
2022-10-05T07:52:06.188Z,95.28
2022-10-05T07:53:11.188Z,94.42
2022-10-05T07:54:06.168Z,93.76
2022-10-05T07:55:06.143Z,91.48
2022-10-05T07:56:06.133Z,90.07
2022-10-05T07:57:06.171Z,88.50
2022-10-05T07:58:06.121Z,88.06
2022-10-05T07:59:06.255Z,87.89
2022-10-05T08:00:06.134Z,87.38
2022-10-05T08:01:06.076Z,88.24
2022-10-05T08:02:06.308Z,88.75
2022-10-05T08:03:06.122Z,88.95
2022-10-05T08:04:11.254Z,89.66
2022-10-05T08:05:06.108Z,89.40
2022-10-05T08:06:06.041Z,89.26
2022-10-05T08:07:06.005Z,88.85
2022-10-05T08:08:06.016Z,89.01
2022-10-05T08:09:06.007Z,87.45
2022-10-05T08:10:05.973Z,87.92
2022-10-05T08:11:06.177Z,86.80
2022-10-05T08:12:05.964Z,86.69
2022-10-05T08:13:05.933Z,86.49
2022-10-05T08:14:05.930Z,85.84
2022-10-05T08:15:10.977Z,84.78
2022-10-05T08:16:06.096Z,84.48
2022-10-05T08:17:05.887Z,83.43
2022-10-05T08:18:05.882Z,83.39
2022-10-05T08:19:05.865Z,82.17
2022-10-05T08:20:05.867Z,82.78
2022-10-05T08:21:05.904Z,82.07
2022-10-05T08:22:05.834Z,82.68
2022-10-05T08:23:05.820Z,83.03
2022-10-05T08:24:05.814Z,83.53
2022-10-05T08:25:05.823Z,84.34
2022-10-05T08:26:10.810Z,83.04
2022-10-05T08:27:05.782Z,81.90
2022-10-05T08:28:05.821Z,80.88
2022-10-05T08:29:08.204Z,82.40
2022-10-05T08:30:05.760Z,81.59
2022-10-05T08:31:05.850Z,80.54
2022-10-05T08:32:05.831Z,79.73
2022-10-05T08:33:05.709Z,79.79
2022-10-05T08:34:05.943Z,79.90
2022-10-05T08:35:05.814Z,79.15
2022-10-05T08:36:05.756Z,79.75
2022-10-05T08:37:10.687Z,80.00
2022-10-05T08:38:05.650Z,79.79
2022-10-05T08:39:05.646Z,80.64
2022-10-05T08:40:05.639Z,81.45
2022-10-05T08:41:05.618Z,81.45
2022-10-05T08:42:05.606Z,81.62
2022-10-05T08:43:05.610Z,81.51
2022-10-05T08:44:05.594Z,81.41
2022-10-05T08:45:05.582Z,81.41
2022-10-05T08:46:05.620Z,81.31
2022-10-05T08:47:05.584Z,81.35
2022-10-05T08:48:10.562Z,81.90
2022-10-05T08:49:05.531Z,82.20
2022-10-05T08:50:05.531Z,82.50
2022-10-05T08:51:05.505Z,82.56
2022-10-05T08:52:05.493Z,82.56
2022-10-05T08:53:05.480Z,82.06
2022-10-05T08:54:05.474Z,82.12
2022-10-05T08:55:05.527Z,81.41
2022-10-05T08:56:05.460Z,82.32
2022-10-05T08:57:05.449Z,81.65
2022-10-05T08:58:05.429Z,81.96
2022-10-05T08:59:10.483Z,81.65
2022-10-05T09:00:05.411Z,81.65
2022-10-05T09:01:05.453Z,82.06
2022-10-05T09:02:05.499Z,81.92
2022-10-05T09:03:05.397Z,82.53
2022-10-05T09:04:05.357Z,81.71
2022-10-05T09:05:05.353Z,81.92
2022-10-05T09:06:05.333Z,81.41
2022-10-05T09:07:05.321Z,82.02
2022-10-05T09:08:05.311Z,82.62
2022-10-05T09:09:05.298Z,82.56
2022-10-05T09:10:10.402Z,82.67
2022-10-05T09:11:05.276Z,82.97
2022-10-05T09:12:05.266Z,83.13
2022-10-05T09:13:05.257Z,82.42
2022-10-05T09:14:05.264Z,82.12
2022-10-05T09:15:25.000Z,82.53
2022-10-05T09:16:06.339Z,81.82
2022-10-05T09:17:05.214Z,81.68
2022-10-05T09:18:05.200Z,81.17
2022-10-05T09:19:05.224Z,81.23
2022-10-05T09:20:05.204Z,81.37
2022-10-05T09:21:10.193Z,81.07
2022-10-05T09:22:05.153Z,81.07
2022-10-05T09:23:05.206Z,81.37
2022-10-05T09:24:05.149Z,81.37
2022-10-05T09:25:05.171Z,82.18
2022-10-05T09:26:05.181Z,81.68
2022-10-05T09:27:05.107Z,81.74
2022-10-05T09:28:05.155Z,82.18
2022-10-05T09:29:05.093Z,81.94
2022-10-05T09:30:05.080Z,81.54
2022-10-05T09:31:05.158Z,80.90
2022-10-05T09:32:15.584Z,79.58
2022-10-05T09:33:06.181Z,79.68
2022-10-05T09:34:05.020Z,79.79
2022-10-05T09:35:05.030Z,79.82
2022-10-05T09:36:05.014Z,79.72
2022-10-05T09:37:04.991Z,80.63
2022-10-05T09:38:04.993Z,80.12
2022-10-05T09:39:05.003Z,79.52
2022-10-05T09:40:04.955Z,79.92
2022-10-05T09:41:04.965Z,80.43
2022-10-05T09:42:04.928Z,80.43
2022-10-05T09:43:09.943Z,80.12
2022-10-05T09:44:04.930Z,80.63
2022-10-05T09:45:04.895Z,80.43
2022-10-05T09:46:04.984Z,79.82
2022-10-05T09:47:04.872Z,79.72
2022-10-05T09:48:04.859Z,80.02
2022-10-05T09:49:04.849Z,80.36
2022-10-05T09:50:04.839Z,80.97
2022-10-05T09:51:04.879Z,80.87
2022-10-05T09:52:04.833Z,80.53
2022-10-05T09:53:04.815Z,80.22
2022-10-05T09:54:09.832Z,80.32
2022-10-05T09:55:04.789Z,80.39
2022-10-05T09:56:04.815Z,79.68
2022-10-05T09:57:04.766Z,79.79
2022-10-05T09:58:04.748Z,79.79
2022-10-05T09:59:04.740Z,79.08
2022-10-05T10:00:04.802Z,79.28
2022-10-05T10:01:09.982Z,79.28
2022-10-05T10:02:05.778Z,79.14
2022-10-05T10:03:04.765Z,78.53
2022-10-05T10:04:04.708Z,78.33
2022-10-05T10:05:09.688Z,78.03
2022-10-05T10:06:04.673Z,77.79
2022-10-05T10:07:04.663Z,77.15
2022-10-05T10:08:04.639Z,76.17
2022-10-05T10:09:04.628Z,75.90
2022-10-05T10:10:04.612Z,75.56
2022-10-05T10:11:04.613Z,76.20
2022-10-05T10:12:04.591Z,76.40
2022-10-05T10:13:04.600Z,76.24
2022-10-05T10:14:04.584Z,77.04
2022-10-05T10:15:04.555Z,77.11
2022-10-05T10:16:09.664Z,76.91
2022-10-05T10:17:04.547Z,77.01
2022-10-05T10:18:04.519Z,76.64
2022-10-05T10:19:04.538Z,76.64
2022-10-05T10:20:04.523Z,77.01
2022-10-05T10:21:04.485Z,76.81
2022-10-05T10:22:04.490Z,76.00
2022-10-05T10:23:04.562Z,76.10
2022-10-05T10:24:04.454Z,76.10
2022-10-05T10:25:04.445Z,75.87
2022-10-05T10:26:04.432Z,75.06
2022-10-05T10:27:09.450Z,75.26
2022-10-05T10:28:04.533Z,74.96
2022-10-05T10:29:04.404Z,75.16
2022-10-05T10:30:04.390Z,75.26
2022-10-05T10:31:04.442Z,74.35
2022-10-05T10:32:04.370Z,74.86
2022-10-05T10:33:04.361Z,74.93
2022-10-05T10:34:04.346Z,74.62
2022-10-05T10:35:04.358Z,74.52
2022-10-05T10:36:06.861Z,75.02
2022-10-05T10:37:04.322Z,75.02
2022-10-05T10:38:09.480Z,74.93
2022-10-05T10:39:04.282Z,74.89
2022-10-05T10:40:04.272Z,74.82
2022-10-05T10:41:04.267Z,74.79
2022-10-05T10:42:04.259Z,73.58
2022-10-05T10:43:04.236Z,74.18
2022-10-05T10:44:04.233Z,73.85
2022-10-05T10:45:04.217Z,73.35
2022-10-05T10:46:04.271Z,73.65
2022-10-05T10:47:04.215Z,72.50
2022-10-05T10:48:04.216Z,72.71
2022-10-05T10:49:09.191Z,73.31
2022-10-05T10:50:04.168Z,72.30
2022-10-05T10:51:04.166Z,72.91
2022-10-05T10:52:04.149Z,73.21
2022-10-05T10:53:04.149Z,73.44
2022-10-05T10:54:04.143Z,73.51
2022-10-05T10:55:04.100Z,73.65
2022-10-05T10:56:04.091Z,73.44
2022-10-05T10:57:04.089Z,73.44
2022-10-05T10:58:04.069Z,73.55
2022-10-05T10:59:04.055Z,73.65
2022-10-05T11:00:09.089Z,74.05
2022-10-05T11:01:04.039Z,74.01
2022-10-05T11:02:04.198Z,73.71
2022-10-05T11:03:04.122Z,73.81
2022-10-05T11:04:03.996Z,73.51
2022-10-05T11:05:03.989Z,73.51
2022-10-05T11:06:03.980Z,73.91
2022-10-05T11:07:03.987Z,73.41
2022-10-05T11:08:03.987Z,73.71
2022-10-05T11:09:03.966Z,73.61
2022-10-05T11:10:03.969Z,73.21
2022-10-05T11:11:08.963Z,73.27
2022-10-05T11:12:03.914Z,73.38
2022-10-05T11:13:03.926Z,73.47
2022-10-05T11:14:03.887Z,73.38
2022-10-05T11:15:03.878Z,72.87
2022-10-05T11:16:04.072Z,72.87
2022-10-05T11:17:03.854Z,73.58
2022-10-05T11:18:03.861Z,72.94
2022-10-05T11:19:03.837Z,72.44
2022-10-05T11:20:05.040Z,71.73
2022-10-05T11:21:03.809Z,71.50
2022-10-05T11:22:08.834Z,71.20
2022-10-05T11:23:03.795Z,71.09
2022-10-05T11:24:03.771Z,69.62
2022-10-05T11:25:03.769Z,69.73
2022-10-05T11:26:03.788Z,69.19
2022-10-05T11:27:03.756Z,69.19
2022-10-05T11:28:03.840Z,69.49
2022-10-05T11:29:03.728Z,69.02
2022-10-05T11:30:03.715Z,70.03
2022-10-05T11:31:03.793Z,69.32
2022-10-05T11:32:03.683Z,69.42
2022-10-05T11:33:08.717Z,69.53
2022-10-05T11:34:03.667Z,70.12
2022-10-05T11:35:03.649Z,70.32
2022-10-05T11:36:03.647Z,70.32
2022-10-05T11:37:03.626Z,71.16
2022-10-05T11:38:03.641Z,70.76
2022-10-05T11:39:03.604Z,70.76
2022-10-05T11:40:03.596Z,71.06
2022-10-05T11:41:03.607Z,71.36
2022-10-05T11:42:03.591Z,70.96
2022-10-05T11:43:03.572Z,70.46
2022-10-05T11:44:08.574Z,70.26
2022-10-05T11:45:03.542Z,71.26
2022-10-05T11:46:03.545Z,70.26
2022-10-05T11:47:03.523Z,71.06
2022-10-05T11:48:03.519Z,70.89
2022-10-05T11:49:03.495Z,71.16
2022-10-05T11:50:03.482Z,70.89
2022-10-05T11:51:03.485Z,71.66
2022-10-05T11:52:03.467Z,71.26
2022-10-05T11:53:03.449Z,71.56
2022-10-05T11:54:03.453Z,71.56
2022-10-05T11:55:11.426Z,71.06
2022-10-05T11:56:03.414Z,70.96
2022-10-05T11:57:03.408Z,70.76
2022-10-05T11:58:03.419Z,70.86
2022-10-05T11:59:03.406Z,71.06
2022-10-05T12:00:03.373Z,71.16
2022-10-05T12:01:03.382Z,71.16
2022-10-05T12:02:03.364Z,70.86
2022-10-05T12:03:03.476Z,70.46
2022-10-05T12:04:03.419Z,69.99
2022-10-05T12:05:03.324Z,69.16
2022-10-05T12:06:08.327Z,68.15
2022-10-05T12:07:03.295Z,67.32
2022-10-05T12:08:03.281Z,67.32
2022-10-05T12:09:03.281Z,67.96
2022-10-05T12:10:03.265Z,67.76
2022-10-05T12:11:03.253Z,68.26
2022-10-05T12:12:03.241Z,68.26
2022-10-05T12:13:03.226Z,67.42
2022-10-05T12:14:03.248Z,67.32
2022-10-05T12:15:03.214Z,67.62
2022-10-05T12:16:03.255Z,67.32
2022-10-05T12:17:08.210Z,66.89
2022-10-05T12:18:03.171Z,65.78
2022-10-05T12:19:03.188Z,65.55
2022-10-05T12:20:03.230Z,64.72
2022-10-05T12:21:03.166Z,64.92
2022-10-05T12:22:03.123Z,64.39
2022-10-05T12:23:03.117Z,64.36
2022-10-05T12:24:03.133Z,66.25
2022-10-05T12:25:03.093Z,65.78
2022-10-05T12:26:03.075Z,66.19
2022-10-05T12:27:03.065Z,66.78
2022-10-05T12:28:08.132Z,66.59
2022-10-05T12:29:03.078Z,66.92
2022-10-05T12:30:03.158Z,67.76
2022-10-05T12:31:03.104Z,67.52
2022-10-05T12:32:03.018Z,67.42
2022-10-05T12:33:02.999Z,67.52
2022-10-05T12:34:02.988Z,67.99
2022-10-05T12:35:02.988Z,67.22
2022-10-05T12:36:02.961Z,66.99
2022-10-05T12:37:04.454Z,67.19
2022-10-05T12:38:02.961Z,67.02
2022-10-05T12:39:07.958Z,67.42
2022-10-05T12:40:03.097Z,67.72
2022-10-05T12:41:02.905Z,68.22
2022-10-05T12:42:02.901Z,67.29
2022-10-05T12:43:02.891Z,67.19
2022-10-05T12:44:02.874Z,67.49
2022-10-05T12:45:02.877Z,67.09
2022-10-05T12:46:02.890Z,66.55
2022-10-05T12:47:02.837Z,66.96
2022-10-05T12:48:02.828Z,66.05
2022-10-05T12:49:02.841Z,65.42
2022-10-05T12:50:07.846Z,66.02
2022-10-05T12:51:02.817Z,66.05
2022-10-05T12:52:02.823Z,66.89
2022-10-05T12:53:02.779Z,67.19
2022-10-05T12:54:02.760Z,67.39
2022-10-05T12:55:02.768Z,67.69
2022-10-05T12:56:02.743Z,67.69
2022-10-05T12:57:02.721Z,67.89
2022-10-05T12:58:02.718Z,67.49
2022-10-05T12:59:02.718Z,67.39
2022-10-05T13:00:02.702Z,67.19
2022-10-05T13:01:07.752Z,67.49
2022-10-05T13:02:02.710Z,67.69
2022-10-05T13:03:02.660Z,67.79
2022-10-05T13:04:02.639Z,67.49
2022-10-05T13:05:02.647Z,67.69
2022-10-05T13:06:02.987Z,67.69
2022-10-05T13:07:02.615Z,67.79
2022-10-05T13:08:02.611Z,67.59
2022-10-05T13:09:02.584Z,68.69
2022-10-05T13:10:02.578Z,67.69
2022-10-05T13:11:02.583Z,68.39
2022-10-05T13:12:07.589Z,67.79
2022-10-05T13:13:02.559Z,68.39
2022-10-05T13:14:02.544Z,68.29
2022-10-05T13:15:02.514Z,68.09
2022-10-05T13:16:02.655Z,67.96
2022-10-05T13:17:02.514Z,68.79
2022-10-05T13:18:02.482Z,67.89
2022-10-05T13:19:02.470Z,68.36
2022-10-05T13:20:02.471Z,68.55
2022-10-05T13:21:02.457Z,68.16
2022-10-05T13:22:02.435Z,67.55
2022-10-05T13:23:07.451Z,67.55
2022-10-05T13:24:02.420Z,67.96
2022-10-05T13:25:02.403Z,67.32
2022-10-05T13:26:02.408Z,67.52
2022-10-05T13:27:02.400Z,67.32
2022-10-05T13:28:02.463Z,67.36
2022-10-05T13:29:02.372Z,67.02
2022-10-05T13:30:02.347Z,67.22
2022-10-05T13:31:02.442Z,67.72
2022-10-05T13:32:02.320Z,67.09
2022-10-05T13:33:02.389Z,66.99
2022-10-05T13:34:07.322Z,66.49
2022-10-05T13:35:02.299Z,66.59
2022-10-05T13:36:02.272Z,66.19
2022-10-05T13:37:02.278Z,66.49
2022-10-05T13:38:02.254Z,66.59
2022-10-05T13:39:02.240Z,66.16
2022-10-05T13:40:02.234Z,65.86
2022-10-05T13:41:02.216Z,65.66
2022-10-05T13:42:02.214Z,65.26
2022-10-05T13:43:02.215Z,65.36
2022-10-05T13:44:02.180Z,66.06
2022-10-05T13:45:07.197Z,65.36
2022-10-05T13:46:02.244Z,64.96
2022-10-05T13:47:02.179Z,65.56
2022-10-05T13:48:02.156Z,66.06
2022-10-05T13:49:02.180Z,65.76
2022-10-05T13:50:02.123Z,65.56
2022-10-05T13:51:02.104Z,65.46
2022-10-05T13:52:02.098Z,65.53
2022-10-05T13:53:02.106Z,65.43
2022-10-05T13:54:02.078Z,65.43
2022-10-05T13:55:02.064Z,65.53
2022-10-05T13:56:07.072Z,65.73
2022-10-05T13:57:02.046Z,65.83
2022-10-05T13:58:02.025Z,65.33
2022-10-05T13:59:02.010Z,65.43
2022-10-05T14:00:01.998Z,65.23
2022-10-05T14:01:02.002Z,65.73
2022-10-05T14:02:02.071Z,65.03
2022-10-05T14:03:02.073Z,65.23
2022-10-05T14:04:02.669Z,65.23
2022-10-05T14:05:01.968Z,65.43
2022-10-05T14:06:01.936Z,65.03
2022-10-05T14:07:06.959Z,65.33
2022-10-05T14:08:01.903Z,65.23
2022-10-05T14:09:01.913Z,64.73
2022-10-05T14:10:01.884Z,66.03
2022-10-05T14:11:01.883Z,65.43
2022-10-05T14:12:01.902Z,65.03
2022-10-05T14:13:01.873Z,65.43
2022-10-05T14:14:01.862Z,65.63
2022-10-05T14:15:01.889Z,65.43
2022-10-05T14:16:01.929Z,65.33
2022-10-05T14:18:06.823Z,65.23
2022-10-05T14:19:01.803Z,65.33
2022-10-05T14:20:01.871Z,65.33
2022-10-05T14:21:01.781Z,65.43
2022-10-05T14:22:01.852Z,65.43
2022-10-05T14:23:01.740Z,65.43
2022-10-05T14:24:01.728Z,65.43
2022-10-05T14:25:01.720Z,65.43
2022-10-05T14:26:04.448Z,65.33
2022-10-05T14:27:01.712Z,65.53
2022-10-05T14:28:01.770Z,65.93
2022-10-05T14:29:06.691Z,65.33
2022-10-05T14:30:01.695Z,65.60
2022-10-05T14:31:01.657Z,66.03
2022-10-05T14:32:01.781Z,65.03
2022-10-05T14:33:01.687Z,64.83
2022-10-05T14:34:01.613Z,65.63
2022-10-05T14:35:01.612Z,65.40
2022-10-05T14:36:01.588Z,65.43
2022-10-05T14:37:01.627Z,65.80
2022-10-05T14:38:01.597Z,65.40
2022-10-05T14:39:01.567Z,65.80
2022-10-05T14:40:06.568Z,65.70
2022-10-05T14:41:01.571Z,65.43
2022-10-05T14:42:01.616Z,64.93
2022-10-05T14:43:01.507Z,65.33
2022-10-05T14:44:02.138Z,65.43
2022-10-05T14:45:01.493Z,65.60
2022-10-05T14:46:01.670Z,65.33
2022-10-05T14:47:01.516Z,65.53
2022-10-05T14:48:01.476Z,64.73
2022-10-05T14:49:01.441Z,66.03
2022-10-05T14:50:01.434Z,65.83
2022-10-05T14:51:06.446Z,65.73
2022-10-05T14:52:01.424Z,65.33
2022-10-05T14:53:01.424Z,64.93
2022-10-05T14:54:01.407Z,65.03
2022-10-05T14:55:01.396Z,65.93
2022-10-05T14:56:01.365Z,65.83
2022-10-05T14:57:01.364Z,65.43
2022-10-05T14:58:01.342Z,65.83
2022-10-05T14:59:01.336Z,65.33
2022-10-05T15:00:01.328Z,65.73
2022-10-05T15:01:01.367Z,66.13
2022-10-05T15:02:06.362Z,65.93
2022-10-05T15:03:01.308Z,65.93
2022-10-05T15:04:01.277Z,65.33
2022-10-05T15:05:01.283Z,65.63
2022-10-05T15:06:01.251Z,65.63
2022-10-05T15:07:04.072Z,65.63
2022-10-05T15:08:01.250Z,65.33
2022-10-05T15:09:01.276Z,65.93
2022-10-05T15:10:01.218Z,65.83
2022-10-05T15:11:01.197Z,65.63
2022-10-05T15:12:01.195Z,65.63
2022-10-05T15:13:11.219Z,65.63
2022-10-05T15:14:02.164Z,65.03
2022-10-05T15:15:01.149Z,64.73
2022-10-05T15:16:01.160Z,65.53
2022-10-05T15:17:01.249Z,65.43
2022-10-05T15:18:01.124Z,65.73
2022-10-05T15:19:01.123Z,65.53
2022-10-05T15:20:01.101Z,66.03
2022-10-05T15:21:01.083Z,65.83
2022-10-05T15:22:01.124Z,65.56
2022-10-05T15:23:01.061Z,65.86
2022-10-05T15:24:06.171Z,65.83
2022-10-05T15:25:01.036Z,65.33
2022-10-05T15:26:01.057Z,65.83
2022-10-05T15:27:01.053Z,65.83
2022-10-05T15:28:01.075Z,65.63
2022-10-05T15:29:00.991Z,66.13
2022-10-05T15:30:00.997Z,65.86
2022-10-05T15:31:01.005Z,66.93
2022-10-05T15:32:00.964Z,66.33
2022-10-05T15:33:00.959Z,66.63
2022-10-05T15:34:00.937Z,66.36
2022-10-05T15:35:05.946Z,66.36
2022-10-05T15:36:00.919Z,66.26
2022-10-05T15:37:00.910Z,66.03
2022-10-05T15:38:00.921Z,66.36
2022-10-05T15:39:00.941Z,66.06
2022-10-05T15:40:00.889Z,66.56
2022-10-05T15:41:00.855Z,66.66
2022-10-05T15:42:00.854Z,66.56
2022-10-05T15:43:00.894Z,67.16
2022-10-05T15:44:00.831Z,66.96
2022-10-05T15:45:00.887Z,66.96
2022-10-05T15:46:05.880Z,66.96
2022-10-05T15:47:00.790Z,66.89
2022-10-05T15:48:00.802Z,66.96
2022-10-05T15:49:00.778Z,67.06
2022-10-05T15:50:00.773Z,66.36
2022-10-05T15:51:00.748Z,66.79
2022-10-05T15:52:00.744Z,66.16
2022-10-05T15:53:00.736Z,66.66
2022-10-05T15:54:06.044Z,66.66
2022-10-05T15:55:01.696Z,66.56
2022-10-05T15:56:00.711Z,66.99
2022-10-05T15:57:05.697Z,66.96
2022-10-05T15:58:00.673Z,66.96
2022-10-05T15:59:00.750Z,66.29
2022-10-05T16:00:00.641Z,66.99
2022-10-05T16:01:00.699Z,66.76
2022-10-05T16:02:00.703Z,66.79
2022-10-05T16:03:00.621Z,67.49
2022-10-05T16:04:00.598Z,67.19
2022-10-05T16:05:04.618Z,67.49
2022-10-05T16:06:00.574Z,67.69
2022-10-05T16:07:00.561Z,67.19
2022-10-05T16:08:05.580Z,67.49
2022-10-05T16:09:00.537Z,67.29
2022-10-05T16:10:00.527Z,67.43
2022-10-05T16:11:00.514Z,67.43
2022-10-05T16:12:00.526Z,67.49
2022-10-05T16:13:00.494Z,68.13
2022-10-05T16:14:00.493Z,68.52
2022-10-05T16:15:00.468Z,68.93
2022-10-05T16:16:00.456Z,68.32
2022-10-05T16:17:00.550Z,68.02
2022-10-05T16:18:00.435Z,68.73
2022-10-05T16:19:05.493Z,68.23
2022-10-05T16:20:00.412Z,67.63
2022-10-05T16:21:00.397Z,68.13
2022-10-05T16:22:00.405Z,67.52
2022-10-05T16:23:00.374Z,67.22